sensor_id;sensor_type;location;lat;lon;timestamp;temperature;humidity
21169;DHT22;10742;51.816;8.662;2023-07-02T00:02:01;22.20;91.70
21169;DHT22;10742;51.816;8.662;2023-07-02T00:05:04;22.20;91.70
21169;DHT22;10742;51.816;8.662;2023-07-02T00:08:07;22.20;91.80
21169;DHT22;10742;51.816;8.662;2023-07-02T00:11:09;22.20;91.80
21169;DHT22;10742;51.816;8.662;2023-07-02T00:14:14;22.20;91.90
21169;DHT22;10742;51.816;8.662;2023-07-02T00:17:17;22.20;91.90
21169;DHT22;10742;51.816;8.662;2023-07-02T00:20:19;22.10;91.90
21169;DHT22;10742;51.816;8.662;2023-07-02T00:23:22;22.10;92.00
21169;DHT22;10742;51.816;8.662;2023-07-02T00:26:25;22.10;92.10
21169;DHT22;10742;51.816;8.662;2023-07-02T00:29:28;22.00;92.10
21169;DHT22;10742;51.816;8.662;2023-07-02T00:32:30;22.10;92.10
21169;DHT22;10742;51.816;8.662;2023-07-02T00:35:33;22.10;92.10
21169;DHT22;10742;51.816;8.662;2023-07-02T00:38:35;22.10;92.10
21169;DHT22;10742;51.816;8.662;2023-07-02T00:41:38;22.10;92.20
21169;DHT22;10742;51.816;8.662;2023-07-02T00:44:40;22.10;92.20
21169;DHT22;10742;51.816;8.662;2023-07-02T00:47:43;22.00;92.10
21169;DHT22;10742;51.816;8.662;2023-07-02T00:50:47;22.00;92.20
21169;DHT22;10742;51.816;8.662;2023-07-02T00:53:51;22.00;92.20
21169;DHT22;10742;51.816;8.662;2023-07-02T00:56:54;22.00;92.30
21169;DHT22;10742;51.816;8.662;2023-07-02T00:59:57;22.00;92.20
21169;DHT22;10742;51.816;8.662;2023-07-02T01:03:02;22.00;92.20
21169;DHT22;10742;51.816;8.662;2023-07-02T01:06:05;21.90;92.20
21169;DHT22;10742;51.816;8.662;2023-07-02T01:09:07;21.90;92.30
21169;DHT22;10742;51.816;8.662;2023-07-02T01:12:10;21.90;92.30
21169;DHT22;10742;51.816;8.662;2023-07-02T01:15:14;21.90;92.30
21169;DHT22;10742;51.816;8.662;2023-07-02T01:18:17;21.90;92.30
21169;DHT22;10742;51.816;8.662;2023-07-02T01:21:20;21.90;92.30
21169;DHT22;10742;51.816;8.662;2023-07-02T01:24:22;21.80;92.30
21169;DHT22;10742;51.816;8.662;2023-07-02T01:27:28;21.80;92.30
21169;DHT22;10742;51.816;8.662;2023-07-02T01:30:31;21.80;92.40
21169;DHT22;10742;51.816;8.662;2023-07-02T01:33:33;21.80;92.20
21169;DHT22;10742;51.816;8.662;2023-07-02T01:36:36;21.70;92.20
21169;DHT22;10742;51.816;8.662;2023-07-02T01:39:38;21.70;92.30
21169;DHT22;10742;51.816;8.662;2023-07-02T01:42:41;21.70;92.30
21169;DHT22;10742;51.816;8.662;2023-07-02T01:45:43;21.60;92.40
21169;DHT22;10742;51.816;8.662;2023-07-02T01:48:45;21.60;92.40
21169;DHT22;10742;51.816;8.662;2023-07-02T01:51:51;21.60;92.40
21169;DHT22;10742;51.816;8.662;2023-07-02T01:54:54;21.50;92.50
21169;DHT22;10742;51.816;8.662;2023-07-02T01:57:56;21.50;92.50
21169;DHT22;10742;51.816;8.662;2023-07-02T02:00:59;21.50;92.50
21169;DHT22;10742;51.816;8.662;2023-07-02T02:04:01;21.40;92.60
21169;DHT22;10742;51.816;8.662;2023-07-02T02:07:03;21.40;92.70
21169;DHT22;10742;51.816;8.662;2023-07-02T02:10:07;21.40;92.70
21169;DHT22;10742;51.816;8.662;2023-07-02T02:13:11;21.30;92.80
21169;DHT22;10742;51.816;8.662;2023-07-02T02:16:13;21.30;92.80
21169;DHT22;10742;51.816;8.662;2023-07-02T02:19:16;21.30;92.80
21169;DHT22;10742;51.816;8.662;2023-07-02T02:22:18;21.30;92.90
21169;DHT22;10742;51.816;8.662;2023-07-02T02:25:20;21.30;92.90
21169;DHT22;10742;51.816;8.662;2023-07-02T02:28:23;21.20;92.90
21169;DHT22;10742;51.816;8.662;2023-07-02T02:31:25;21.20;92.90
21169;DHT22;10742;51.816;8.662;2023-07-02T02:34:27;21.20;93.00
21169;DHT22;10742;51.816;8.662;2023-07-02T02:37:34;21.20;93.00
21169;DHT22;10742;51.816;8.662;2023-07-02T02:40:37;21.20;93.10
21169;DHT22;10742;51.816;8.662;2023-07-02T02:43:43;21.20;93.00
21169;DHT22;10742;51.816;8.662;2023-07-02T02:46:48;21.20;93.10
21169;DHT22;10742;51.816;8.662;2023-07-02T02:49:50;21.20;93.10
21169;DHT22;10742;51.816;8.662;2023-07-02T02:52:52;21.20;93.10
21169;DHT22;10742;51.816;8.662;2023-07-02T02:55:55;21.20;93.10
21169;DHT22;10742;51.816;8.662;2023-07-02T02:58:57;21.20;93.00
21169;DHT22;10742;51.816;8.662;2023-07-02T03:02:00;21.20;93.10
21169;DHT22;10742;51.816;8.662;2023-07-02T03:05:02;21.20;93.10
21169;DHT22;10742;51.816;8.662;2023-07-02T03:08:05;21.30;93.10
21169;DHT22;10742;51.816;8.662;2023-07-02T03:11:07;21.20;93.10
21169;DHT22;10742;51.816;8.662;2023-07-02T03:14:10;21.30;93.10
21169;DHT22;10742;51.816;8.662;2023-07-02T03:17:13;21.20;93.10
21169;DHT22;10742;51.816;8.662;2023-07-02T03:20:15;21.20;93.10
21169;DHT22;10742;51.816;8.662;2023-07-02T03:23:18;21.20;93.10
21169;DHT22;10742;51.816;8.662;2023-07-02T03:26:21;21.20;93.10
21169;DHT22;10742;51.816;8.662;2023-07-02T03:29:24;21.20;93.10
21169;DHT22;10742;51.816;8.662;2023-07-02T03:32:27;21.20;93.10
21169;DHT22;10742;51.816;8.662;2023-07-02T03:35:29;21.20;93.10
21169;DHT22;10742;51.816;8.662;2023-07-02T03:38:31;21.20;93.10
21169;DHT22;10742;51.816;8.662;2023-07-02T03:41:34;21.20;93.10
21169;DHT22;10742;51.816;8.662;2023-07-02T03:44:36;21.20;93.10
21169;DHT22;10742;51.816;8.662;2023-07-02T03:47:38;21.20;93.10
21169;DHT22;10742;51.816;8.662;2023-07-02T03:50:40;21.20;93.00
21169;DHT22;10742;51.816;8.662;2023-07-02T03:53:43;21.10;93.00
21169;DHT22;10742;51.816;8.662;2023-07-02T03:56:45;21.20;93.10
21169;DHT22;10742;51.816;8.662;2023-07-02T03:59:47;21.20;93.10
21169;DHT22;10742;51.816;8.662;2023-07-02T04:02:50;21.10;93.00
21169;DHT22;10742;51.816;8.662;2023-07-02T04:05:52;21.20;93.00
21169;DHT22;10742;51.816;8.662;2023-07-02T04:08:54;21.10;93.00
21169;DHT22;10742;51.816;8.662;2023-07-02T04:11:57;21.20;93.00
21169;DHT22;10742;51.816;8.662;2023-07-02T04:14:59;21.20;92.90
21169;DHT22;10742;51.816;8.662;2023-07-02T04:18:01;21.20;92.90
21169;DHT22;10742;51.816;8.662;2023-07-02T04:21:03;21.20;92.80
21169;DHT22;10742;51.816;8.662;2023-07-02T04:24:06;21.20;92.80
21169;DHT22;10742;51.816;8.662;2023-07-02T04:27:08;21.20;92.70
21169;DHT22;10742;51.816;8.662;2023-07-02T04:30:11;21.20;92.70
21169;DHT22;10742;51.816;8.662;2023-07-02T04:33:13;21.20;92.70
21169;DHT22;10742;51.816;8.662;2023-07-02T04:36:16;21.20;92.70
21169;DHT22;10742;51.816;8.662;2023-07-02T04:39:18;21.10;92.70
21169;DHT22;10742;51.816;8.662;2023-07-02T04:42:41;21.10;92.60
21169;DHT22;10742;51.816;8.662;2023-07-02T04:46:02;21.10;92.60
21169;DHT22;10742;51.816;8.662;2023-07-02T04:49:24;21.10;92.50
21169;DHT22;10742;51.816;8.662;2023-07-02T04:52:45;21.10;92.60
21169;DHT22;10742;51.816;8.662;2023-07-02T04:55:47;21.10;92.60
21169;DHT22;10742;51.816;8.662;2023-07-02T04:58:49;21.10;92.70
21169;DHT22;10742;51.816;8.662;2023-07-02T05:01:52;21.10;92.80
21169;DHT22;10742;51.816;8.662;2023-07-02T05:04:54;21.10;92.90
21169;DHT22;10742;51.816;8.662;2023-07-02T05:07:56;21.00;92.90
21169;DHT22;10742;51.816;8.662;2023-07-02T05:10:58;21.00;92.70
21169;DHT22;10742;51.816;8.662;2023-07-02T05:14:01;21.00;92.50
21169;DHT22;10742;51.816;8.662;2023-07-02T05:17:03;21.00;92.20
21169;DHT22;10742;51.816;8.662;2023-07-02T05:20:06;21.00;92.10
21169;DHT22;10742;51.816;8.662;2023-07-02T05:23:09;20.90;92.20
21169;DHT22;10742;51.816;8.662;2023-07-02T05:26:11;20.90;92.40
21169;DHT22;10742;51.816;8.662;2023-07-02T05:29:13;20.90;92.50
21169;DHT22;10742;51.816;8.662;2023-07-02T05:32:16;20.90;92.80
21169;DHT22;10742;51.816;8.662;2023-07-02T05:35:18;20.90;93.00
21169;DHT22;10742;51.816;8.662;2023-07-02T05:38:21;20.90;93.30
21169;DHT22;10742;51.816;8.662;2023-07-02T05:41:23;21.00;93.50
21169;DHT22;10742;51.816;8.662;2023-07-02T05:44:27;21.10;93.60
21169;DHT22;10742;51.816;8.662;2023-07-02T05:47:29;21.20;93.70
21169;DHT22;10742;51.816;8.662;2023-07-02T05:50:32;21.30;93.80
21169;DHT22;10742;51.816;8.662;2023-07-02T05:53:34;21.40;93.60
21169;DHT22;10742;51.816;8.662;2023-07-02T05:56:36;21.50;93.40
21169;DHT22;10742;51.816;8.662;2023-07-02T05:59:39;21.60;93.00
21169;DHT22;10742;51.816;8.662;2023-07-02T06:02:41;21.60;92.80
21169;DHT22;10742;51.816;8.662;2023-07-02T06:05:43;21.70;92.50
21169;DHT22;10742;51.816;8.662;2023-07-02T06:08:46;21.70;92.30
21169;DHT22;10742;51.816;8.662;2023-07-02T06:11:48;21.70;92.10
21169;DHT22;10742;51.816;8.662;2023-07-02T06:14:50;21.70;91.80
21169;DHT22;10742;51.816;8.662;2023-07-02T06:17:53;21.70;91.70
21169;DHT22;10742;51.816;8.662;2023-07-02T06:20:55;21.70;91.80
21169;DHT22;10742;51.816;8.662;2023-07-02T06:23:57;21.80;91.80
21169;DHT22;10742;51.816;8.662;2023-07-02T06:27:01;21.80;91.70
21169;DHT22;10742;51.816;8.662;2023-07-02T06:30:04;21.90;91.70
21169;DHT22;10742;51.816;8.662;2023-07-02T06:33:06;22.00;91.40
21169;DHT22;10742;51.816;8.662;2023-07-02T06:36:09;22.20;91.10
21169;DHT22;10742;51.816;8.662;2023-07-02T06:39:12;22.40;91.00
21169;DHT22;10742;51.816;8.662;2023-07-02T06:42:15;22.50;90.70
21169;DHT22;10742;51.816;8.662;2023-07-02T06:45:18;22.60;90.10
21169;DHT22;10742;51.816;8.662;2023-07-02T06:48:21;22.60;89.60
21169;DHT22;10742;51.816;8.662;2023-07-02T06:51:23;22.80;89.00
21169;DHT22;10742;51.816;8.662;2023-07-02T06:54:28;22.80;88.70
21169;DHT22;10742;51.816;8.662;2023-07-02T06:57:30;22.90;88.70
21169;DHT22;10742;51.816;8.662;2023-07-02T07:00:33;23.00;88.70
21169;DHT22;10742;51.816;8.662;2023-07-02T07:03:37;23.20;88.00
21169;DHT22;10742;51.816;8.662;2023-07-02T07:06:40;23.30;87.30
21169;DHT22;10742;51.816;8.662;2023-07-02T07:09:42;23.50;87.20
21169;DHT22;10742;51.816;8.662;2023-07-02T07:12:44;23.70;86.50
21169;DHT22;10742;51.816;8.662;2023-07-02T07:15:46;23.90;85.40
21169;DHT22;10742;51.816;8.662;2023-07-02T07:18:49;24.10;84.30
21169;DHT22;10742;51.816;8.662;2023-07-02T07:21:51;24.20;83.10
21169;DHT22;10742;51.816;8.662;2023-07-02T07:24:53;24.40;82.10
21169;DHT22;10742;51.816;8.662;2023-07-02T07:27:55;24.50;81.50
21169;DHT22;10742;51.816;8.662;2023-07-02T07:30:58;24.70;81.20
21169;DHT22;10742;51.816;8.662;2023-07-02T07:34:01;24.80;79.80
21169;DHT22;10742;51.816;8.662;2023-07-02T07:37:03;24.90;80.10
21169;DHT22;10742;51.816;8.662;2023-07-02T07:40:06;25.00;79.60
21169;DHT22;10742;51.816;8.662;2023-07-02T07:43:08;25.10;79.10
21169;DHT22;10742;51.816;8.662;2023-07-02T07:46:11;25.30;78.70
21169;DHT22;10742;51.816;8.662;2023-07-02T07:49:32;25.40;77.60
21169;DHT22;10742;51.816;8.662;2023-07-02T07:52:53;25.60;76.30
21169;DHT22;10742;51.816;8.662;2023-07-02T07:56:15;25.70;75.40
21169;DHT22;10742;51.816;8.662;2023-07-02T07:59:17;25.70;74.80
21169;DHT22;10742;51.816;8.662;2023-07-02T08:02:19;25.80;73.90
21169;DHT22;10742;51.816;8.662;2023-07-02T08:05:22;25.90;73.10
21169;DHT22;10742;51.816;8.662;2023-07-02T08:08:25;25.90;73.30
21169;DHT22;10742;51.816;8.662;2023-07-02T08:11:27;25.90;72.40
21169;DHT22;10742;51.816;8.662;2023-07-02T08:14:29;25.90;71.50
21169;DHT22;10742;51.816;8.662;2023-07-02T08:17:32;25.80;72.30
21169;DHT22;10742;51.816;8.662;2023-07-02T08:20:34;25.80;71.00
21169;DHT22;10742;51.816;8.662;2023-07-02T08:23:36;25.80;71.10
21169;DHT22;10742;51.816;8.662;2023-07-02T08:26:39;25.80;71.80
21169;DHT22;10742;51.816;8.662;2023-07-02T08:29:41;25.80;72.40
21169;DHT22;10742;51.816;8.662;2023-07-02T08:32:45;25.90;72.90
21169;DHT22;10742;51.816;8.662;2023-07-02T08:35:47;26.00;73.00
21169;DHT22;10742;51.816;8.662;2023-07-02T08:38:49;26.00;71.30
21169;DHT22;10742;51.816;8.662;2023-07-02T08:41:52;26.00;71.20
21169;DHT22;10742;51.816;8.662;2023-07-02T08:44:54;26.10;69.10
21169;DHT22;10742;51.816;8.662;2023-07-02T08:47:57;26.10;67.50
21169;DHT22;10742;51.816;8.662;2023-07-02T08:51:00;26.10;67.80
21169;DHT22;10742;51.816;8.662;2023-07-02T08:54:04;26.10;67.50
21169;DHT22;10742;51.816;8.662;2023-07-02T08:57:07;26.10;67.50
21169;DHT22;10742;51.816;8.662;2023-07-02T09:00:11;26.10;67.10
21169;DHT22;10742;51.816;8.662;2023-07-02T09:03:14;26.10;67.00
21169;DHT22;10742;51.816;8.662;2023-07-02T09:06:22;26.20;65.50
21169;DHT22;10742;51.816;8.662;2023-07-02T09:09:26;26.20;64.30
21169;DHT22;10742;51.816;8.662;2023-07-02T09:12:29;26.10;62.10
21169;DHT22;10742;51.816;8.662;2023-07-02T09:15:38;26.10;62.20
21169;DHT22;10742;51.816;8.662;2023-07-02T09:18:41;26.00;58.40
21169;DHT22;10742;51.816;8.662;2023-07-02T09:21:45;25.90;60.00
21169;DHT22;10742;51.816;8.662;2023-07-02T09:24:55;25.80;59.10
21169;DHT22;10742;51.816;8.662;2023-07-02T09:27:59;25.70;57.80
21169;DHT22;10742;51.816;8.662;2023-07-02T09:31:02;25.60;59.20
21169;DHT22;10742;51.816;8.662;2023-07-02T09:34:05;25.50;59.20
21169;DHT22;10742;51.816;8.662;2023-07-02T09:37:07;25.50;59.30
21169;DHT22;10742;51.816;8.662;2023-07-02T09:40:10;25.50;58.00
21169;DHT22;10742;51.816;8.662;2023-07-02T09:43:17;25.50;57.80
21169;DHT22;10742;51.816;8.662;2023-07-02T09:46:19;25.50;58.70
21169;DHT22;10742;51.816;8.662;2023-07-02T09:49:22;25.40;58.70
21169;DHT22;10742;51.816;8.662;2023-07-02T09:52:26;25.50;59.30
21169;DHT22;10742;51.816;8.662;2023-07-02T09:55:29;25.50;59.20
21169;DHT22;10742;51.816;8.662;2023-07-02T09:58:32;25.60;58.10
21169;DHT22;10742;51.816;8.662;2023-07-02T10:01:34;25.70;58.00
21169;DHT22;10742;51.816;8.662;2023-07-02T10:04:41;25.70;57.60
21169;DHT22;10742;51.816;8.662;2023-07-02T10:07:44;25.80;56.40
21169;DHT22;10742;51.816;8.662;2023-07-02T10:10:46;25.80;57.60
21169;DHT22;10742;51.816;8.662;2023-07-02T10:14:00;25.80;56.80
21169;DHT22;10742;51.816;8.662;2023-07-02T10:17:03;25.90;55.60
21169;DHT22;10742;51.816;8.662;2023-07-02T10:20:06;26.00;56.70
21169;DHT22;10742;51.816;8.662;2023-07-02T10:23:09;26.00;55.90
21169;DHT22;10742;51.816;8.662;2023-07-02T10:26:19;26.10;56.20
21169;DHT22;10742;51.816;8.662;2023-07-02T10:29:26;26.30;54.50
21169;DHT22;10742;51.816;8.662;2023-07-02T10:32:29;26.30;54.90
21169;DHT22;10742;51.816;8.662;2023-07-02T10:35:33;26.40;54.70
21169;DHT22;10742;51.816;8.662;2023-07-02T10:38:36;26.40;54.10
21169;DHT22;10742;51.816;8.662;2023-07-02T10:41:38;26.40;53.40
21169;DHT22;10742;51.816;8.662;2023-07-02T10:45:00;26.40;53.80
21169;DHT22;10742;51.816;8.662;2023-07-02T10:48:21;26.40;54.30
21169;DHT22;10742;51.816;8.662;2023-07-02T10:51:42;26.40;54.40
21169;DHT22;10742;51.816;8.662;2023-07-02T10:55:04;26.50;54.70
21169;DHT22;10742;51.816;8.662;2023-07-02T10:58:08;26.50;54.30
21169;DHT22;10742;51.816;8.662;2023-07-02T11:01:11;26.60;54.50
21169;DHT22;10742;51.816;8.662;2023-07-02T11:04:13;26.70;54.20
21169;DHT22;10742;51.816;8.662;2023-07-02T11:07:22;26.80;54.30
21169;DHT22;10742;51.816;8.662;2023-07-02T11:10:25;26.80;53.50
21169;DHT22;10742;51.816;8.662;2023-07-02T11:13:27;26.90;54.50
21169;DHT22;10742;51.816;8.662;2023-07-02T11:16:29;27.00;53.80
21169;DHT22;10742;51.816;8.662;2023-07-02T11:19:35;27.00;54.30
21169;DHT22;10742;51.816;8.662;2023-07-02T11:22:38;27.10;52.80
21169;DHT22;10742;51.816;8.662;2023-07-02T11:25:41;27.20;52.50
21169;DHT22;10742;51.816;8.662;2023-07-02T11:28:50;27.20;52.00
21169;DHT22;10742;51.816;8.662;2023-07-02T11:31:53;27.20;51.00
21169;DHT22;10742;51.816;8.662;2023-07-02T11:34:55;27.30;51.80
21169;DHT22;10742;51.816;8.662;2023-07-02T11:37:58;27.40;51.40
21169;DHT22;10742;51.816;8.662;2023-07-02T11:41:03;27.40;51.50
21169;DHT22;10742;51.816;8.662;2023-07-02T11:44:06;27.40;51.00
21169;DHT22;10742;51.816;8.662;2023-07-02T11:47:09;27.40;50.70
21169;DHT22;10742;51.816;8.662;2023-07-02T11:50:11;27.40;51.00
21169;DHT22;10742;51.816;8.662;2023-07-02T11:53:17;27.40;50.70
21169;DHT22;10742;51.816;8.662;2023-07-02T11:56:20;27.40;51.30
21169;DHT22;10742;51.816;8.662;2023-07-02T11:59:22;27.40;50.60
21169;DHT22;10742;51.816;8.662;2023-07-02T12:02:24;27.40;51.10
21169;DHT22;10742;51.816;8.662;2023-07-02T12:05:26;27.40;51.30
21169;DHT22;10742;51.816;8.662;2023-07-02T12:08:29;27.50;50.90
21169;DHT22;10742;51.816;8.662;2023-07-02T12:11:31;27.50;51.00
21169;DHT22;10742;51.816;8.662;2023-07-02T12:14:33;27.50;50.60
21169;DHT22;10742;51.816;8.662;2023-07-02T12:17:36;27.50;51.20
21169;DHT22;10742;51.816;8.662;2023-07-02T12:20:39;27.60;51.40
21169;DHT22;10742;51.816;8.662;2023-07-02T12:23:42;27.70;51.10
21169;DHT22;10742;51.816;8.662;2023-07-02T12:26:44;27.70;50.60
21169;DHT22;10742;51.816;8.662;2023-07-02T12:29:46;27.80;50.60
21169;DHT22;10742;51.816;8.662;2023-07-02T12:32:50;27.80;49.90
21169;DHT22;10742;51.816;8.662;2023-07-02T12:35:52;27.90;50.00
21169;DHT22;10742;51.816;8.662;2023-07-02T12:38:56;27.90;49.80
21169;DHT22;10742;51.816;8.662;2023-07-02T12:41:58;27.80;49.70
21169;DHT22;10742;51.816;8.662;2023-07-02T12:45:00;27.80;49.80
21169;DHT22;10742;51.816;8.662;2023-07-02T12:48:03;27.80;49.80
21169;DHT22;10742;51.816;8.662;2023-07-02T12:51:05;27.80;49.20
21169;DHT22;10742;51.816;8.662;2023-07-02T12:54:08;27.80;49.40
21169;DHT22;10742;51.816;8.662;2023-07-02T12:57:10;27.80;50.10
21169;DHT22;10742;51.816;8.662;2023-07-02T13:00:12;27.80;50.10
21169;DHT22;10742;51.816;8.662;2023-07-02T13:03:17;27.80;50.20
21169;DHT22;10742;51.816;8.662;2023-07-02T13:06:22;27.80;49.40
21169;DHT22;10742;51.816;8.662;2023-07-02T13:09:24;27.80;49.30
21169;DHT22;10742;51.816;8.662;2023-07-02T13:12:29;27.70;49.30
21169;DHT22;10742;51.816;8.662;2023-07-02T13:15:31;27.60;49.30
21169;DHT22;10742;51.816;8.662;2023-07-02T13:18:34;27.60;49.50
21169;DHT22;10742;51.816;8.662;2023-07-02T13:21:36;27.70;49.70
21169;DHT22;10742;51.816;8.662;2023-07-02T13:24:39;27.60;48.90
21169;DHT22;10742;51.816;8.662;2023-07-02T13:27:42;27.60;49.20
21169;DHT22;10742;51.816;8.662;2023-07-02T13:30:44;27.50;49.60
21169;DHT22;10742;51.816;8.662;2023-07-02T13:33:48;27.50;48.80
21169;DHT22;10742;51.816;8.662;2023-07-02T13:36:52;27.50;48.90
21169;DHT22;10742;51.816;8.662;2023-07-02T13:39:54;27.40;48.50
21169;DHT22;10742;51.816;8.662;2023-07-02T13:42:57;27.40;48.60
21169;DHT22;10742;51.816;8.662;2023-07-02T13:45:59;27.40;48.70
21169;DHT22;10742;51.816;8.662;2023-07-02T13:49:01;27.30;48.50
21169;DHT22;10742;51.816;8.662;2023-07-02T13:52:04;27.30;48.70
21169;DHT22;10742;51.816;8.662;2023-07-02T13:55:07;27.30;48.50
21169;DHT22;10742;51.816;8.662;2023-07-02T13:58:10;27.30;48.50
21169;DHT22;10742;51.816;8.662;2023-07-02T14:01:12;27.30;48.40
21169;DHT22;10742;51.816;8.662;2023-07-02T14:04:16;27.30;48.50
21169;DHT22;10742;51.816;8.662;2023-07-02T14:07:19;27.30;48.20
21169;DHT22;10742;51.816;8.662;2023-07-02T14:10:21;27.30;48.50
21169;DHT22;10742;51.816;8.662;2023-07-02T14:13:24;27.30;47.90
21169;DHT22;10742;51.816;8.662;2023-07-02T14:16:26;27.40;48.10
21169;DHT22;10742;51.816;8.662;2023-07-02T14:19:28;27.30;48.00
21169;DHT22;10742;51.816;8.662;2023-07-02T14:22:31;27.30;47.80
21169;DHT22;10742;51.816;8.662;2023-07-02T14:25:33;27.30;48.10
21169;DHT22;10742;51.816;8.662;2023-07-02T14:28:41;27.30;47.90
21169;DHT22;10742;51.816;8.662;2023-07-02T14:31:43;27.40;46.90
21169;DHT22;10742;51.816;8.662;2023-07-02T14:34:46;27.40;47.50
21169;DHT22;10742;51.816;8.662;2023-07-02T14:37:48;27.40;47.60
21169;DHT22;10742;51.816;8.662;2023-07-02T14:40:51;27.40;47.60
21169;DHT22;10742;51.816;8.662;2023-07-02T14:43:54;27.40;47.40
21169;DHT22;10742;51.816;8.662;2023-07-02T14:46:56;27.50;47.10
21169;DHT22;10742;51.816;8.662;2023-07-02T14:49:59;27.50;46.60
21169;DHT22;10742;51.816;8.662;2023-07-02T14:53:01;27.50;46.90
21169;DHT22;10742;51.816;8.662;2023-07-02T14:56:04;27.50;47.10
21169;DHT22;10742;51.816;8.662;2023-07-02T14:59:06;27.50;47.20
21169;DHT22;10742;51.816;8.662;2023-07-02T15:02:09;27.50;47.50
21169;DHT22;10742;51.816;8.662;2023-07-02T15:05:11;27.50;47.50
21169;DHT22;10742;51.816;8.662;2023-07-02T15:08:14;27.50;47.50
21169;DHT22;10742;51.816;8.662;2023-07-02T15:11:18;27.50;47.30
21169;DHT22;10742;51.816;8.662;2023-07-02T15:14:21;27.50;47.80
21169;DHT22;10742;51.816;8.662;2023-07-02T15:17:23;27.50;47.60
21169;DHT22;10742;51.816;8.662;2023-07-02T15:20:26;27.50;47.50
21169;DHT22;10742;51.816;8.662;2023-07-02T15:23:29;27.50;47.70
21169;DHT22;10742;51.816;8.662;2023-07-02T15:26:31;27.40;48.00
21169;DHT22;10742;51.816;8.662;2023-07-02T15:29:34;27.40;48.10
21169;DHT22;10742;51.816;8.662;2023-07-02T15:32:36;27.40;48.40
21169;DHT22;10742;51.816;8.662;2023-07-02T15:35:39;27.40;48.40
21169;DHT22;10742;51.816;8.662;2023-07-02T15:38:41;27.50;48.20
21169;DHT22;10742;51.816;8.662;2023-07-02T15:41:43;27.50;48.30
21169;DHT22;10742;51.816;8.662;2023-07-02T15:44:46;27.50;48.00
21169;DHT22;10742;51.816;8.662;2023-07-02T15:47:48;27.50;48.10
21169;DHT22;10742;51.816;8.662;2023-07-02T15:50:50;27.50;48.20
21169;DHT22;10742;51.816;8.662;2023-07-02T15:53:53;27.40;48.30
21169;DHT22;10742;51.816;8.662;2023-07-02T15:56:55;27.40;49.00
21169;DHT22;10742;51.816;8.662;2023-07-02T15:59:57;27.40;48.20
21169;DHT22;10742;51.816;8.662;2023-07-02T16:03:00;27.40;48.00
21169;DHT22;10742;51.816;8.662;2023-07-02T16:06:02;27.40;48.10
21169;DHT22;10742;51.816;8.662;2023-07-02T16:09:06;27.40;48.00
21169;DHT22;10742;51.816;8.662;2023-07-02T16:12:10;27.30;47.80
21169;DHT22;10742;51.816;8.662;2023-07-02T16:15:12;27.30;48.40
21169;DHT22;10742;51.816;8.662;2023-07-02T16:18:15;27.30;48.40
21169;DHT22;10742;51.816;8.662;2023-07-02T16:21:17;27.30;48.70
21169;DHT22;10742;51.816;8.662;2023-07-02T16:24:23;27.30;48.70
21169;DHT22;10742;51.816;8.662;2023-07-02T16:27:26;27.30;48.40
21169;DHT22;10742;51.816;8.662;2023-07-02T16:30:28;27.30;49.30
21169;DHT22;10742;51.816;8.662;2023-07-02T16:33:31;27.20;48.30
21169;DHT22;10742;51.816;8.662;2023-07-02T16:36:35;27.10;48.00
21169;DHT22;10742;51.816;8.662;2023-07-02T16:39:38;27.10;48.20
21169;DHT22;10742;51.816;8.662;2023-07-02T16:42:40;27.00;48.40
21169;DHT22;10742;51.816;8.662;2023-07-02T16:45:43;26.90;48.70
21169;DHT22;10742;51.816;8.662;2023-07-02T16:48:52;26.80;48.80
21169;DHT22;10742;51.816;8.662;2023-07-02T16:51:55;26.70;49.00
21169;DHT22;10742;51.816;8.662;2023-07-02T16:54:57;26.60;49.20
21169;DHT22;10742;51.816;8.662;2023-07-02T16:58:00;26.60;49.60
21169;DHT22;10742;51.816;8.662;2023-07-02T17:01:05;26.60;49.90
21169;DHT22;10742;51.816;8.662;2023-07-02T17:04:08;26.60;49.80
21169;DHT22;10742;51.816;8.662;2023-07-02T17:07:10;26.60;50.00
21169;DHT22;10742;51.816;8.662;2023-07-02T17:10:14;26.60;50.10
21169;DHT22;10742;51.816;8.662;2023-07-02T17:13:16;26.60;50.00
21169;DHT22;10742;51.816;8.662;2023-07-02T17:16:18;26.60;49.90
21169;DHT22;10742;51.816;8.662;2023-07-02T17:19:25;26.60;50.10
21169;DHT22;10742;51.816;8.662;2023-07-02T17:22:29;26.50;50.40
21169;DHT22;10742;51.816;8.662;2023-07-02T17:25:32;26.50;50.30
21169;DHT22;10742;51.816;8.662;2023-07-02T17:28:35;26.50;50.70
21169;DHT22;10742;51.816;8.662;2023-07-02T17:31:37;26.50;50.70
21169;DHT22;10742;51.816;8.662;2023-07-02T17:34:39;26.50;50.40
21169;DHT22;10742;51.816;8.662;2023-07-02T17:37:42;26.40;50.40
21169;DHT22;10742;51.816;8.662;2023-07-02T17:40:45;26.40;50.50
21169;DHT22;10742;51.816;8.662;2023-07-02T17:43:47;26.40;50.90
21169;DHT22;10742;51.816;8.662;2023-07-02T17:46:55;26.40;50.80
21169;DHT22;10742;51.816;8.662;2023-07-02T17:49:58;26.40;51.10
21169;DHT22;10742;51.816;8.662;2023-07-02T17:53:00;26.40;51.20
21169;DHT22;10742;51.816;8.662;2023-07-02T17:56:03;26.40;50.80
21169;DHT22;10742;51.816;8.662;2023-07-02T17:59:06;26.30;50.80
21169;DHT22;10742;51.816;8.662;2023-07-02T18:02:11;26.30;50.80
21169;DHT22;10742;51.816;8.662;2023-07-02T18:05:14;26.20;50.80
21169;DHT22;10742;51.816;8.662;2023-07-02T18:08:17;26.20;50.90
21169;DHT22;10742;51.816;8.662;2023-07-02T18:11:19;26.20;51.00
21169;DHT22;10742;51.816;8.662;2023-07-02T18:14:23;26.20;50.90
21169;DHT22;10742;51.816;8.662;2023-07-02T18:17:27;26.20;50.90
21169;DHT22;10742;51.816;8.662;2023-07-02T18:20:30;26.10;50.70
21169;DHT22;10742;51.816;8.662;2023-07-02T18:23:32;26.00;50.90
21169;DHT22;10742;51.816;8.662;2023-07-02T18:26:35;25.90;50.90
21169;DHT22;10742;51.816;8.662;2023-07-02T18:29:38;25.90;50.80
21169;DHT22;10742;51.816;8.662;2023-07-02T18:32:40;25.80;50.80
21169;DHT22;10742;51.816;8.662;2023-07-02T18:35:42;25.80;51.30
21169;DHT22;10742;51.816;8.662;2023-07-02T18:38:46;25.70;51.30
21169;DHT22;10742;51.816;8.662;2023-07-02T18:41:48;25.70;51.40
21169;DHT22;10742;51.816;8.662;2023-07-02T18:44:52;25.70;51.50
21169;DHT22;10742;51.816;8.662;2023-07-02T18:47:55;25.70;51.50
21169;DHT22;10742;51.816;8.662;2023-07-02T18:50:57;25.60;51.40
21169;DHT22;10742;51.816;8.662;2023-07-02T18:54:00;25.60;51.40
21169;DHT22;10742;51.816;8.662;2023-07-02T18:57:04;25.60;51.50
21169;DHT22;10742;51.816;8.662;2023-07-02T19:00:07;25.50;51.40
21169;DHT22;10742;51.816;8.662;2023-07-02T19:03:11;25.50;51.50
21169;DHT22;10742;51.816;8.662;2023-07-02T19:06:14;25.50;51.70
21169;DHT22;10742;51.816;8.662;2023-07-02T19:09:16;25.40;51.50
21169;DHT22;10742;51.816;8.662;2023-07-02T19:12:20;25.40;51.40
21169;DHT22;10742;51.816;8.662;2023-07-02T19:15:22;25.30;51.50
21169;DHT22;10742;51.816;8.662;2023-07-02T19:18:25;25.20;51.50